sensor_id;sensor_type;location;lat;lon;timestamp;pressure;altitude;pressure_sealevel;temperature;humidity
1616;BME280;801;47.982;7.810;2023-02-23T00:00:47;98335.44;;;10.92;100.00
1616;BME280;801;47.982;7.810;2023-02-23T00:03:14;98325.72;;;10.76;100.00
1616;BME280;801;47.982;7.810;2023-02-23T00:05:41;98332.19;;;11.00;100.00
1616;BME280;801;47.982;7.810;2023-02-23T00:08:07;98329.50;;;10.80;100.00
1616;BME280;801;47.982;7.810;2023-02-23T00:10:35;98334.34;;;10.88;100.00
1616;BME280;801;47.982;7.810;2023-02-23T00:13:01;98330.31;;;10.96;100.00
1616;BME280;801;47.982;7.810;2023-02-23T00:15:29;98327.06;;;10.94;100.00
1616;BME280;801;47.982;7.810;2023-02-23T00:17:56;98331.13;;;11.07;100.00
1616;BME280;801;47.982;7.810;2023-02-23T00:20:25;98323.06;;;10.86;100.00
1616;BME280;801;47.982;7.810;2023-02-23T00:22:53;98326.28;;;10.93;100.00
1616;BME280;801;47.982;7.810;2023-02-23T00:25:20;98330.59;;;10.84;100.00
1616;BME280;801;47.982;7.810;2023-02-23T00:27:46;98319.81;;;10.89;100.00
1616;BME280;801;47.982;7.810;2023-02-23T00:30:14;98325.22;;;10.79;100.00
1616;BME280;801;47.982;7.810;2023-02-23T00:32:42;98322.53;;;10.79;100.00
1616;BME280;801;47.982;7.810;2023-02-23T00:35:09;98321.72;;;10.63;100.00
1616;BME280;801;47.982;7.810;2023-02-23T00:37:45;98309.63;;;10.66;100.00
1616;BME280;801;47.982;7.810;2023-02-23T00:40:12;98318.50;;;10.76;100.00
1616;BME280;801;47.982;7.810;2023-02-23T00:42:41;98325.19;;;10.58;100.00
1616;BME280;801;47.982;7.810;2023-02-23T00:45:09;98319.56;;;10.65;100.00
1616;BME280;801;47.982;7.810;2023-02-23T00:47:37;98325.47;;;10.77;100.00
1616;BME280;801;47.982;7.810;2023-02-23T00:50:04;98325.72;;;10.76;100.00
1616;BME280;801;47.982;7.810;2023-02-23T00:52:31;98317.16;;;10.74;100.00
1616;BME280;801;47.982;7.810;2023-02-23T00:54:59;98316.59;;;10.62;100.00
1616;BME280;801;47.982;7.810;2023-02-23T00:57:25;98318.50;;;10.92;100.00
1616;BME280;801;47.982;7.810;2023-02-23T00:59:52;98313.13;;;10.92;100.00
1616;BME280;801;47.982;7.810;2023-02-23T01:02:18;98314.19;;;10.75;100.00
1616;BME280;801;47.982;7.810;2023-02-23T01:04:45;98310.97;;;10.84;100.00
1616;BME280;801;47.982;7.810;2023-02-23T01:07:11;98310.16;;;10.68;100.00
1616;BME280;801;47.982;7.810;2023-02-23T01:09:38;98310.16;;;10.68;100.00
1616;BME280;801;47.982;7.810;2023-02-23T01:12:07;98306.09;;;10.80;100.00
1616;BME280;801;47.982;7.810;2023-02-23T01:14:34;98301.03;;;10.79;100.00
1616;BME280;801;47.982;7.810;2023-02-23T01:17:01;98305.84;;;10.77;100.00
1616;BME280;801;47.982;7.810;2023-02-23T01:19:28;98303.44;;;10.70;100.00
1616;BME280;801;47.982;7.810;2023-02-23T01:21:58;98298.31;;;10.89;100.00
1616;BME280;801;47.982;7.810;2023-02-23T01:24:24;98304.78;;;10.98;100.00
1616;BME280;801;47.982;7.810;2023-02-23T01:26:51;98298.88;;;10.96;100.00
1616;BME280;801;47.982;7.810;2023-02-23T01:29:19;98293.22;;;11.03;100.00
1616;BME280;801;47.982;7.810;2023-02-23T01:31:47;98297.78;;;11.08;100.00
1616;BME280;801;47.982;7.810;2023-02-23T01:34:15;98294.03;;;11.04;100.00
1616;BME280;801;47.982;7.810;2023-02-23T01:36:43;98283.28;;;11.04;100.00
1616;BME280;801;47.982;7.810;2023-02-23T01:39:11;98283.28;;;11.04;100.00
1616;BME280;801;47.982;7.810;2023-02-23T01:41:39;98295.09;;;10.82;100.00
1616;BME280;801;47.982;7.810;2023-02-23T01:44:57;98292.41;;;11.13;100.00
1616;BME280;801;47.982;7.810;2023-02-23T01:46:56;98277.91;;;10.83;100.00
1616;BME280;801;47.982;7.810;2023-02-23T01:49:25;98283.81;;;10.95;100.00
1616;BME280;801;47.982;7.810;2023-02-23T01:51:56;98281.63;;;11.02;100.00
1616;BME280;801;47.982;7.810;2023-02-23T01:54:26;98278.97;;;11.08;100.00
1616;BME280;801;47.982;7.810;2023-02-23T01:56:57;98280.53;;;11.24;100.00
1616;BME280;801;47.982;7.810;2023-02-23T01:59:28;98275.16;;;11.29;100.00
1616;BME280;801;47.982;7.810;2023-02-23T02:02:00;98280.53;;;11.29;100.00
1616;BME280;801;47.982;7.810;2023-02-23T02:04:29;98284.03;;;11.35;100.00
1616;BME280;801;47.982;7.810;2023-02-23T02:07:03;98277.84;;;11.34;100.00
1616;BME280;801;47.982;7.810;2023-02-23T02:09:31;98269.22;;;11.37;100.00
1616;BME280;801;47.982;7.810;2023-02-23T02:12:04;98270.59;;;11.25;100.00
1616;BME280;801;47.982;7.810;2023-02-23T02:14:33;98266.84;;;11.00;100.00
1616;BME280;801;47.982;7.810;2023-02-23T02:17:19;98266.84;;;11.10;100.00
1616;BME280;801;47.982;7.810;2023-02-23T02:20:27;98267.56;;;11.47;100.00
1616;BME280;801;47.982;7.810;2023-02-23T02:23:11;98260.59;;;11.40;100.00
1616;BME280;801;47.982;7.810;2023-02-23T02:25:49;98268.09;;;11.49;100.00
1616;BME280;801;47.982;7.810;2023-02-23T02:28:43;98263.84;;;11.27;100.00
1616;BME280;801;47.982;7.810;2023-02-23T02:34:46;98257.41;;;11.28;100.00
1616;BME280;801;47.982;7.810;2023-02-23T02:37:26;98251.78;;;11.14;100.00
1616;BME280;801;47.982;7.810;2023-02-23T02:40:06;98255.28;;;11.15;100.00
1616;BME280;801;47.982;7.810;2023-02-23T02:42:50;98252.06;;;11.08;100.00
1616;BME280;801;47.982;7.810;2023-02-23T02:45:25;98252.06;;;11.02;100.00
1616;BME280;801;47.982;7.810;2023-02-23T02:47:57;98253.16;;;11.01;100.00
1616;BME280;801;47.982;7.810;2023-02-23T02:50:35;98248.59;;;10.92;100.00
1616;BME280;801;47.982;7.810;2023-02-23T02:53:09;98249.13;;;10.99;100.00
1616;BME280;801;47.982;7.810;2023-02-23T02:55:39;98253.72;;;10.83;100.00
1616;BME280;801;47.982;7.810;2023-02-23T02:58:07;98250.75;;;10.90;100.00
1616;BME280;801;47.982;7.810;2023-02-23T03:00:37;98252.06;;;11.08;100.00
1616;BME280;801;47.982;7.810;2023-02-23T03:03:29;98242.38;;;11.17;100.00
1616;BME280;801;47.982;7.810;2023-02-23T03:06:14;98252.06;;;11.13;100.00
1616;BME280;801;47.982;7.810;2023-02-23T03:09:09;98245.88;;;11.02;100.00
1616;BME280;801;47.982;7.810;2023-02-23T03:12:05;98242.41;;;10.96;100.00
1616;BME280;801;47.982;7.810;2023-02-23T03:14:58;98237.56;;;10.98;100.00
1616;BME280;801;47.982;7.810;2023-02-23T03:17:48;98244.28;;;11.01;100.00
1616;BME280;801;47.982;7.810;2023-02-23T03:20:40;98242.91;;;11.09;100.00
1616;BME280;801;47.982;7.810;2023-02-23T03:23:34;98244.53;;;11.15;100.00
1616;BME280;801;47.982;7.810;2023-02-23T03:26:28;98242.94;;;10.78;100.00
1616;BME280;801;47.982;7.810;2023-02-23T03:29:17;98238.69;;;10.72;100.00
1616;BME280;801;47.982;7.810;2023-02-23T03:32:06;98241.06;;;10.84;100.00
1616;BME280;801;47.982;7.810;2023-02-23T03:34:58;98238.91;;;10.96;100.00
1616;BME280;801;47.982;7.810;2023-02-23T03:37:49;98238.09;;;11.06;100.00
1616;BME280;801;47.982;7.810;2023-02-23T03:40:38;98237.00;;;11.07;100.00
1616;BME280;801;47.982;7.810;2023-02-23T03:43:28;98238.88;;;11.16;100.00
1616;BME280;801;47.982;7.810;2023-02-23T03:46:16;98238.06;;;11.11;100.00
1616;BME280;801;47.982;7.810;2023-02-23T03:49:04;98245.84;;;11.28;100.00
1616;BME280;801;47.982;7.810;2023-02-23T03:51:54;98234.88;;;10.93;100.00
1616;BME280;801;47.982;7.810;2023-02-23T03:54:43;98235.41;;;10.95;100.00
1616;BME280;801;47.982;7.810;2023-02-23T03:57:31;98246.97;;;11.01;100.00
1616;BME280;801;47.982;7.810;2023-02-23T04:00:24;98241.88;;;10.94;100.00
1616;BME280;801;47.982;7.810;2023-02-23T04:03:11;98245.59;;;11.14;100.00
1616;BME280;801;47.982;7.810;2023-02-23T04:05:57;98239.94;;;11.20;100.00
1616;BME280;801;47.982;7.810;2023-02-23T04:08:42;98239.16;;;11.15;100.00
1616;BME280;801;47.982;7.810;2023-02-23T04:11:30;98244.28;;;10.80;100.00
1616;BME280;801;47.982;7.810;2023-02-23T04:14:20;98241.31;;;11.08;100.00
1616;BME280;801;47.982;7.810;2023-02-23T04:16:50;98242.38;;;11.12;100.00
1616;BME280;801;47.982;7.810;2023-02-23T04:19:16;98238.06;;;11.11;100.00
1616;BME280;801;47.982;7.810;2023-02-23T04:21:43;98241.84;;;11.05;100.00
1616;BME280;801;47.982;7.810;2023-02-23T04:24:10;98243.47;;;10.95;100.00
1616;BME280;801;47.982;7.810;2023-02-23T04:26:36;98238.94;;;10.75;100.00
1616;BME280;801;47.982;7.810;2023-02-23T04:29:03;98244.84;;;10.52;100.00
1616;BME280;801;47.982;7.810;2023-02-23T04:31:29;98234.63;;;10.69;100.00
1616;BME280;801;47.982;7.810;2023-02-23T04:33:57;98236.22;;;10.91;100.00
1616;BME280;801;47.982;7.810;2023-02-23T04:36:23;98234.38;;;10.81;100.00
1616;BME280;801;47.982;7.810;2023-02-23T04:38:51;98240.81;;;10.85;100.00
1616;BME280;801;47.982;7.810;2023-02-23T04:41:17;98247.78;;;10.86;100.00
1616;BME280;801;47.982;7.810;2023-02-23T04:43:44;98243.50;;;10.80;100.00
1616;BME280;801;47.982;7.810;2023-02-23T04:46:10;98241.63;;;10.86;100.00
1616;BME280;801;47.982;7.810;2023-02-23T04:48:37;98238.91;;;10.96;100.00
1616;BME280;801;47.982;7.810;2023-02-23T04:51:05;98246.97;;;11.06;100.00
1616;BME280;801;47.982;7.810;2023-02-23T04:53:31;98246.66;;;11.18;100.00
1616;BME280;801;47.982;7.810;2023-02-23T04:55:58;98245.91;;;10.87;100.00
1616;BME280;801;47.982;7.810;2023-02-23T04:58:24;98246.69;;;10.97;100.00
1616;BME280;801;47.982;7.810;2023-02-23T05:00:51;98247.50;;;10.98;100.00
1616;BME280;801;47.982;7.810;2023-02-23T05:03:17;98242.44;;;10.66;100.00
1616;BME280;801;47.982;7.810;2023-02-23T05:05:44;98240.81;;;10.80;100.00
1616;BME280;801;47.982;7.810;2023-02-23T05:08:12;98238.69;;;10.72;100.00
1616;BME280;801;47.982;7.810;2023-02-23T05:10:38;98241.88;;;10.69;100.00
1616;BME280;801;47.982;7.810;2023-02-23T05:13:05;98244.03;;;10.92;100.00
1616;BME280;801;47.982;7.810;2023-02-23T05:15:31;98251.28;;;10.97;100.00
1616;BME280;801;47.982;7.810;2023-02-23T05:17:58;98247.50;;;10.98;100.00
1616;BME280;801;47.982;7.810;2023-02-23T05:20:24;98240.25;;;11.04;100.00
1616;BME280;801;47.982;7.810;2023-02-23T05:22:51;98246.97;;;11.01;100.00
1616;BME280;801;47.982;7.810;2023-02-23T05:25:19;98245.09;;;11.01;100.00
1616;BME280;801;47.982;7.810;2023-02-23T05:27:45;98246.69;;;10.97;100.00
1616;BME280;801;47.982;7.810;2023-02-23T05:30:12;98244.56;;;10.99;100.00
1616;BME280;801;47.982;7.810;2023-02-23T05:32:39;98241.31;;;11.02;100.00
1616;BME280;801;47.982;7.810;2023-02-23T05:35:07;98248.81;;;11.16;100.00
1616;BME280;801;47.982;7.810;2023-02-23T05:37:34;98238.91;;;11.06;100.00
1616;BME280;801;47.982;7.810;2023-02-23T05:40:00;98247.81;;;10.66;100.00
1616;BME280;801;47.982;7.810;2023-02-23T05:42:28;98246.72;;;10.92;100.00
1616;BME280;801;47.982;7.810;2023-02-23T05:44:54;98244.00;;;10.97;100.00
1616;BME280;801;47.982;7.810;2023-02-23T05:47:21;98244.56;;;10.89;100.00
1616;BME280;801;47.982;7.810;2023-02-23T05:49:47;98247.22;;;11.05;100.00
1616;BME280;801;47.982;7.810;2023-02-23T05:52:14;98251.78;;;11.09;100.00
1616;BME280;801;47.982;7.810;2023-02-23T05:54:40;98246.41;;;11.09;100.00
1616;BME280;801;47.982;7.810;2023-02-23T05:57:07;98248.81;;;11.16;100.00
1616;BME280;801;47.982;7.810;2023-02-23T05:59:35;98256.66;;;10.82;100.00
1616;BME280;801;47.982;7.810;2023-02-23T06:02:01;98247.00;;;10.70;100.00
1616;BME280;801;47.982;7.810;2023-02-23T06:04:28;98258.00;;;10.84;100.00
1616;BME280;801;47.982;7.810;2023-02-23T06:06:55;98249.38;;;11.08;100.00
1616;BME280;801;47.982;7.810;2023-02-23T06:09:21;98253.41;;;11.15;100.00
1616;BME280;801;47.982;7.810;2023-02-23T06:11:48;98259.03;;;11.19;100.00
1616;BME280;801;47.982;7.810;2023-02-23T06:14:15;98258.50;;;11.22;100.00
1616;BME280;801;47.982;7.810;2023-02-23T06:16:43;98258.47;;;11.27;100.00
1616;BME280;801;47.982;7.810;2023-02-23T06:19:09;98256.06;;;11.20;100.00
1616;BME280;801;47.982;7.810;2023-02-23T06:21:36;98260.38;;;11.27;100.00
1616;BME280;801;47.982;7.810;2023-02-23T06:24:03;98263.06;;;11.21;100.00
1616;BME280;801;47.982;7.810;2023-02-23T06:26:30;98264.69;;;11.17;100.00
1616;BME280;801;47.982;7.810;2023-02-23T06:28:57;98269.56;;;11.05;100.00
1616;BME280;801;47.982;7.810;2023-02-23T06:31:23;98269.03;;;10.93;100.00
1616;BME280;801;47.982;7.810;2023-02-23T06:33:51;98276.81;;;10.89;100.00
1616;BME280;801;47.982;7.810;2023-02-23T06:36:18;98281.13;;;10.90;100.00
1616;BME280;801;47.982;7.810;2023-02-23T06:38:44;98270.91;;;10.92;100.00
1616;BME280;801;47.982;7.810;2023-02-23T06:41:11;98269.56;;;10.79;100.00
1616;BME280;801;47.982;7.810;2023-02-23T06:43:38;98280.59;;;10.98;100.00
1616;BME280;801;47.982;7.810;2023-02-23T06:46:04;98282.47;;;10.93;100.00
1616;BME280;801;47.982;7.810;2023-02-23T06:48:31;98285.97;;;10.98;100.00
1616;BME280;801;47.982;7.810;2023-02-23T06:51:01;98289.19;;;11.06;100.00
1616;BME280;801;47.982;7.810;2023-02-23T06:53:28;98287.56;;;11.15;100.00
1616;BME280;801;47.982;7.810;2023-02-23T06:55:55;98289.16;;;11.11;100.00
1616;BME280;801;47.982;7.810;2023-02-23T06:58:21;98288.63;;;11.14;100.00
1616;BME280;801;47.982;7.810;2023-02-23T07:00:48;98290.50;;;11.18;100.00
1616;BME280;801;47.982;7.810;2023-02-23T07:03:14;98288.09;;;11.17;100.00
1616;BME280;801;47.982;7.810;2023-02-23T07:05:41;98295.88;;;11.18;100.00
1616;BME280;801;47.982;7.810;2023-02-23T07:08:08;98291.84;;;11.16;100.00
1616;BME280;801;47.982;7.810;2023-02-23T07:10:35;98295.88;;;11.24;100.00
1616;BME280;801;47.982;7.810;2023-02-23T07:13:02;98304.19;;;11.27;100.00
1616;BME280;801;47.982;7.810;2023-02-23T07:15:28;98301.25;;;11.29;100.00
1616;BME280;801;47.982;7.810;2023-02-23T07:17:55;98303.13;;;11.33;100.00
1616;BME280;801;47.982;7.810;2023-02-23T07:20:21;98309.03;;;11.35;100.00
1616;BME280;801;47.982;7.810;2023-02-23T07:22:48;98304.47;;;11.36;100.00
1616;BME280;801;47.982;7.810;2023-02-23T07:25:16;98300.19;;;11.30;100.00
1616;BME280;801;47.982;7.810;2023-02-23T07:27:42;98309.06;;;11.30;100.00
1616;BME280;801;47.982;7.810;2023-02-23T07:30:10;98299.34;;;11.39;100.00
1616;BME280;801;47.982;7.810;2023-02-23T07:32:37;98309.59;;;11.32;100.00
1616;BME280;801;47.982;7.810;2023-02-23T07:35:04;98298.28;;;11.35;100.00
1616;BME280;801;47.982;7.810;2023-02-23T07:37:31;98311.47;;;11.37;100.00
1616;BME280;801;47.982;7.810;2023-02-23T07:39:58;98307.97;;;11.41;100.00
1616;BME280;801;47.982;7.810;2023-02-23T07:42:25;98306.38;;;11.30;100.00
1616;BME280;801;47.982;7.810;2023-02-23T07:44:52;98307.41;;;11.39;100.00
1616;BME280;801;47.982;7.810;2023-02-23T07:47:18;98306.34;;;11.46;100.00
1616;BME280;801;47.982;7.810;2023-02-23T07:49:45;98307.38;;;11.50;100.00
1616;BME280;801;47.982;7.810;2023-02-23T07:52:11;98316.78;;;11.62;100.00
1616;BME280;801;47.982;7.810;2023-02-23T07:54:38;98308.97;;;11.56;100.00
1616;BME280;801;47.982;7.810;2023-02-23T07:57:04;98306.31;;;11.51;100.00
1616;BME280;801;47.982;7.810;2023-02-23T07:59:32;98311.97;;;11.49;100.00
1616;BME280;801;47.982;7.810;2023-02-23T08:01:59;98308.22;;;11.50;100.00
1616;BME280;801;47.982;7.810;2023-02-23T08:04:25;98306.84;;;11.53;100.00
1616;BME280;801;47.982;7.810;2023-02-23T08:06:51;98313.53;;;11.60;100.00
1616;BME280;801;47.982;7.810;2023-02-23T08:09:19;98309.50;;;11.63;100.00
1616;BME280;801;47.982;7.810;2023-02-23T08:11:46;98314.38;;;11.61;100.00
1616;BME280;801;47.982;7.810;2023-02-23T08:14:12;98307.91;;;11.57;100.00
1616;BME280;801;47.982;7.810;2023-02-23T08:16:40;98310.31;;;11.58;100.00
1616;BME280;801;47.982;7.810;2023-02-23T08:19:08;98307.38;;;11.50;100.00
1616;BME280;801;47.982;7.810;2023-02-23T08:21:34;98313.00;;;11.58;100.00
1616;BME280;801;47.982;7.810;2023-02-23T08:24:02;98310.84;;;11.60;100.00
1616;BME280;801;47.982;7.810;2023-02-23T08:26:28;98318.63;;;11.67;100.00
1616;BME280;801;47.982;7.810;2023-02-23T08:28:55;98317.25;;;11.80;100.00
1616;BME280;801;47.982;7.810;2023-02-23T08:31:22;98315.91;;;11.82;100.00
1616;BME280;801;47.982;7.810;2023-02-23T08:33:52;98317.78;;;11.82;100.00
1616;BME280;801;47.982;7.810;2023-02-23T08:36:18;98322.66;;;11.80;100.00
1616;BME280;801;47.982;7.810;2023-02-23T08:38:45;98317.50;;;11.94;100.00
1616;BME280;801;47.982;7.810;2023-02-23T08:41:12;98315.88;;;11.98;100.00
1616;BME280;801;47.982;7.810;2023-02-23T08:43:39;98314.78;;;12.04;100.00
1616;BME280;801;47.982;7.810;2023-02-23T08:46:06;98315.81;;;12.13;100.00
1616;BME280;801;47.982;7.810;2023-02-23T08:48:34;98314.19;;;12.12;100.00
1616;BME280;801;47.982;7.810;2023-02-23T08:51:02;98316.06;;;12.12;100.00
1616;BME280;801;47.982;7.810;2023-02-23T08:53:28;98322.56;;;12.11;100.00
1616;BME280;801;47.982;7.810;2023-02-23T08:55:56;98319.84;;;12.16;100.00
1616;BME280;801;47.982;7.810;2023-02-23T08:58:23;98323.84;;;12.23;100.00
1616;BME280;801;47.982;7.810;2023-02-23T09:00:49;98322.44;;;12.31;100.00
1616;BME280;801;47.982;7.810;2023-02-23T09:03:16;98320.22;;;12.43;100.00
1616;BME280;801;47.982;7.810;2023-02-23T09:05:42;98315.94;;;12.37;100.00
1616;BME280;801;47.982;7.810;2023-02-23T09:08:11;98318.59;;;12.42;100.00
1616;BME280;801;47.982;7.810;2023-02-23T09:10:37;98312.47;;;12.32;100.00
1616;BME280;801;47.982;7.810;2023-02-23T09:13:04;98322.94;;;12.38;100.00
1616;BME280;801;47.982;7.810;2023-02-23T09:15:31;98313.41;;;12.56;100.00
1616;BME280;801;47.982;7.810;2023-02-23T09:17:59;98319.22;;;12.74;100.00
1616;BME280;801;47.982;7.810;2023-02-23T09:20:25;98318.00;;;12.90;100.00
1616;BME280;801;47.982;7.810;2023-02-23T09:22:52;98325.56;;;12.88;100.00
1616;BME280;801;47.982;7.810;2023-02-23T09:25:20;98336.66;;;12.86;100.00
1616;BME280;801;47.982;7.810;2023-02-23T09:27:47;98332.09;;;12.82;100.00
1616;BME280;801;47.982;7.810;2023-02-23T09:30:15;98339.09;;;13.17;100.00
1616;BME280;801;47.982;7.810;2023-02-23T09:32:45;98334.44;;;13.28;100.00
1616;BME280;801;47.982;7.810;2023-02-23T09:35:12;98338.97;;;12.98;100.00
1616;BME280;801;47.982;7.810;2023-02-23T09:37:42;98340.94;;;12.87;100.00
1616;BME280;801;47.982;7.810;2023-02-23T09:40:13;98341.66;;;12.19;100.00
1616;BME280;801;47.982;7.810;2023-02-23T09:42:45;98335.97;;;12.65;100.00
1616;BME280;801;47.982;7.810;2023-02-23T09:45:23;98331.03;;;13.12;100.00
1616;BME280;801;47.982;7.810;2023-02-23T09:48:03;98340.78;;;13.08;100.00
1616;BME280;801;47.982;7.810;2023-02-23T09:50:33;98339.38;;;13.16;100.00
1616;BME280;801;47.982;7.810;2023-02-23T09:53:05;98339.75;;;13.04;100.00
1616;BME280;801;47.982;7.810;2023-02-23T09:55:33;98341.56;;;13.14;100.00
1616;BME280;801;47.982;7.810;2023-02-23T09:58:06;98339.28;;;13.26;100.00
1616;BME280;801;47.982;7.810;2023-02-23T10:00:37;98340.72;;;13.18;100.00
1616;BME280;801;47.982;7.810;2023-02-23T10:03:11;98339.28;;;13.26;100.00
1616;BME280;801;47.982;7.810;2023-02-23T10:05:45;98335.97;;;13.05;100.00
1616;BME280;801;47.982;7.810;2023-02-23T10:08:19;98335.38;;;13.08;100.00
1616;BME280;801;47.982;7.810;2023-02-23T10:10:50;98325.25;;;13.29;100.00
1616;BME280;801;47.982;7.810;2023-02-23T10:13:26;98333.81;;;13.65;100.00
1616;BME280;801;47.982;7.810;2023-02-23T10:16:02;98331.44;;;13.59;100.00
1616;BME280;801;47.982;7.810;2023-02-23T10:18:35;98333.91;;;13.79;100.00
1616;BME280;801;47.982;7.810;2023-02-23T10:21:05;98331.03;;;13.95;100.00
1616;BME280;801;47.982;7.810;2023-02-23T10:23:37;98325.88;;;13.74;100.00
1616;BME280;801;47.982;7.810;2023-02-23T10:26:06;98321.22;;;13.56;100.00
1616;BME280;801;47.982;7.810;2023-02-23T10:28:35;98321.31;;;13.45;100.00
1616;BME280;801;47.982;7.810;2023-02-23T10:31:15;98323.47;;;13.48;100.00
1616;BME280;801;47.982;7.810;2023-02-23T10:33:44;98319.44;;;13.70;100.00
1616;BME280;801;47.982;7.810;2023-02-23T10:36:15;98319.31;;;13.56;100.00
1616;BME280;801;47.982;7.810;2023-02-23T10:38:43;98313.91;;;13.32;100.00
1616;BME280;801;47.982;7.810;2023-02-23T10:41:10;98317.56;;;13.41;100.00
1616;BME280;801;47.982;7.810;2023-02-23T10:43:39;98315.91;;;13.45;100.00
1616;BME280;801;47.982;7.810;2023-02-23T10:46:06;98313.13;;;13.56;100.00
1616;BME280;801;47.982;7.810;2023-02-23T10:48:39;98322.88;;;13.52;100.00
1616;BME280;801;47.982;7.810;2023-02-23T10:51:13;98319.91;;;13.53;100.00
1616;BME280;801;47.982;7.810;2023-02-23T10:53:43;98321.84;;;13.47;100.00
1616;BME280;801;47.982;7.810;2023-02-23T10:56:11;98319.91;;;13.53;100.00
1616;BME280;801;47.982;7.810;2023-02-23T10:58:41;98314.84;;;13.95;100.00
1616;BME280;801;47.982;7.810;2023-02-23T11:01:11;98311.88;;;14.53;100.00
1616;BME280;801;47.982;7.810;2023-02-23T11:03:39;98323.31;;;14.69;100.00
1616;BME280;801;47.982;7.810;2023-02-23T11:06:27;98312.06;;;14.81;100.00
1616;BME280;801;47.982;7.810;2023-02-23T11:08:54;98313.47;;;14.59;100.00
1616;BME280;801;47.982;7.810;2023-02-23T11:11:24;98315.44;;;15.05;100.00
1616;BME280;801;47.982;7.810;2023-02-23T11:13:55;98314.00;;;14.94;100.00
1616;BME280;801;47.982;7.810;2023-02-23T11:16:23;98313.91;;;15.32;100.00
1616;BME280;801;47.982;7.810;2023-02-23T11:18:53;98319.44;;;14.94;100.00
1616;BME280;801;47.982;7.810;2023-02-23T11:21:24;98312.09;;;14.94;100.00
1616;BME280;801;47.982;7.810;2023-02-23T11:23:53;98310.38;;;14.85;100.00
1616;BME280;801;47.982;7.810;2023-02-23T11:26:29;98308.00;;;15.30;100.00
1616;BME280;801;47.982;7.810;2023-02-23T11:29:01;98313.28;;;15.21;100.00
1616;BME280;801;47.982;7.810;2023-02-23T11:31:31;98317.09;;;14.68;100.00
1616;BME280;801;47.982;7.810;2023-02-23T11:33:59;98308.50;;;15.32;100.00
1616;BME280;801;47.982;7.810;2023-02-23T11:36:28;98309.66;;;15.12;100.00
1616;BME280;801;47.982;7.810;2023-02-23T11:39:02;98304.72;;;15.61;100.00
1616;BME280;801;47.982;7.810;2023-02-23T11:41:29;98306.88;;;15.31;100.00
1616;BME280;801;47.982;7.810;2023-02-23T11:43:59;98299.53;;;15.78;100.00
1616;BME280;801;47.982;7.810;2023-02-23T11:46:29;98296.16;;;16.23;100.00
1616;BME280;801;47.982;7.810;2023-02-23T11:48:58;98302.16;;;15.83;100.00
1616;BME280;801;47.982;7.810;2023-02-23T11:51:27;98291.91;;;16.08;100.00
1616;BME280;801;47.982;7.810;2023-02-23T11:53:54;98289.94;;;16.58;100.00
1616;BME280;801;47.982;7.810;2023-02-23T11:56:23;98292.72;;;15.94;100.00
1616;BME280;801;47.982;7.810;2023-02-23T11:58:52;98286.69;;;15.97;100.00
1616;BME280;801;47.982;7.810;2023-02-23T12:01:25;98283.59;;;15.90;100.00
1616;BME280;801;47.982;7.810;2023-02-23T12:04:00;98283.47;;;15.82;100.00
1616;BME280;801;47.982;7.810;2023-02-23T12:06:30;98282.88;;;15.98;100.00
1616;BME280;801;47.982;7.810;2023-02-23T12:09:02;98278.97;;;15.91;100.00
1616;BME280;801;47.982;7.810;2023-02-23T12:11:32;98281.63;;;15.49;100.00
1616;BME280;801;47.982;7.810;2023-02-23T12:14:06;98283.25;;;15.50;100.00
1616;BME280;801;47.982;7.810;2023-02-23T12:16:39;98276.75;;;15.65;100.00
1616;BME280;801;47.982;7.810;2023-02-23T12:19:20;98281.69;;;15.17;100.00
1616;BME280;801;47.982;7.810;2023-02-23T12:21:54;98278.28;;;15.25;100.00
1616;BME280;801;47.982;7.810;2023-02-23T12:24:27;98274.78;;;15.10;100.00
1616;BME280;801;47.982;7.810;2023-02-23T12:26:59;98274.81;;;15.38;100.00
1616;BME280;801;47.982;7.810;2023-02-23T12:29:34;98274.00;;;15.24;100.00
1616;BME280;801;47.982;7.810;2023-02-23T12:32:05;98281.03;;;15.52;100.00
1616;BME280;801;47.982;7.810;2023-02-23T12:34:41;98268.97;;;15.31;100.00
1616;BME280;801;47.982;7.810;2023-02-23T12:37:19;98265.94;;;15.79;100.00
1616;BME280;801;47.982;7.810;2023-02-23T12:39:56;98276.44;;;15.81;97.79
1616;BME280;801;47.982;7.810;2023-02-23T12:42:32;98264.59;;;15.63;98.35
1616;BME280;801;47.982;7.810;2023-02-23T12:45:03;98268.69;;;15.46;98.43
1616;BME280;801;47.982;7.810;2023-02-23T12:47:35;98263.28;;;15.46;98.21
1616;BME280;801;47.982;7.810;2023-02-23T12:50:10;98261.97;;;15.57;96.54
1616;BME280;801;47.982;7.810;2023-02-23T12:52:41;98259.38;;;15.52;97.03
1616;BME280;801;47.982;7.810;2023-02-23T12:55:12;98263.56;;;15.31;100.00
1616;BME280;801;47.982;7.810;2023-02-23T12:57:44;98274.41;;;15.45;100.00
1616;BME280;801;47.982;7.810;2023-02-23T13:00:37;98260.06;;;15.44;100.00
1616;BME280;801;47.982;7.810;2023-02-23T13:03:29;98267.78;;;15.37;100.00
1616;BME280;801;47.982;7.810;2023-02-23T13:06:03;98262.78;;;15.44;98.47
1616;BME280;801;47.982;7.810;2023-02-23T13:08:45;98253.06;;;15.57;97.88
1616;BME280;801;47.982;7.810;2023-02-23T13:11:21;98253.06;;;15.43;100.00
1616;BME280;801;47.982;7.810;2023-02-23T13:13:55;98254.75;;;15.53;99.65
1616;BME280;801;47.982;7.810;2023-02-23T13:16:29;98252.66;;;16.42;95.22
1616;BME280;801;47.982;7.810;2023-02-23T13:19:06;98253.94;;;16.67;94.50
1616;BME280;801;47.982;7.810;2023-02-23T13:21:39;98246.75;;;16.62;92.67
1616;BME280;801;47.982;7.810;2023-02-23T13:24:10;98241.81;;;16.87;87.06
1616;BME280;801;47.982;7.810;2023-02-23T13:26:43;98250.94;;;16.68;84.45
1616;BME280;801;47.982;7.810;2023-02-23T13:29:23;98241.56;;;16.97;87.21
1616;BME280;801;47.982;7.810;2023-02-23T13:31:52;98244.91;;;16.94;87.50
1616;BME280;801;47.982;7.810;2023-02-23T13:34:27;98238.19;;;16.91;85.69
1616;BME280;801;47.982;7.810;2023-02-23T13:36:55;98241.13;;;17.35;78.67
1616;BME280;801;47.982;7.810;2023-02-23T13:39:38;98240.78;;;17.36;80.77
1616;BME280;801;47.982;7.810;2023-02-23T13:42:31;98248.97;;;17.45;79.92
1616;BME280;801;47.982;7.810;2023-02-23T13:45:20;98231.84;;;17.36;79.29
1616;BME280;801;47.982;7.810;2023-02-23T13:47:52;98238.47;;;17.61;75.26